createdAt,value
2022-09-15T00:02:17.974Z,2.60
2022-09-15T00:07:12.531Z,2.33
2022-09-15T00:12:06.139Z,2.65
2022-09-15T00:16:59.282Z,2.40
2022-09-15T00:21:52.405Z,2.30
2022-09-15T00:26:46.834Z,2.30
2022-09-15T00:31:39.880Z,2.67
2022-09-15T00:36:33.409Z,2.60
2022-09-15T00:41:31.713Z,2.60
2022-09-15T00:46:30.616Z,2.50
2022-09-15T00:51:30.518Z,2.17
2022-09-15T00:56:30.754Z,2.30
2022-09-15T01:01:27.502Z,2.47
2022-09-15T01:06:25.328Z,2.67
2022-09-15T01:11:18.510Z,2.90
2022-09-15T01:16:26.327Z,2.30
2022-09-15T01:21:28.656Z,2.42
2022-09-15T01:26:45.004Z,2.67
2022-09-15T01:31:58.781Z,2.50
2022-09-15T01:37:00.242Z,2.50
2022-09-15T01:41:58.868Z,2.60
2022-09-15T01:46:58.400Z,2.70
2022-09-15T01:51:54.542Z,2.45
2022-09-15T01:56:47.793Z,2.50
2022-09-15T02:01:45.400Z,2.42
2022-09-15T02:06:44.977Z,2.33
2022-09-15T02:11:45.688Z,3.22
2022-09-15T02:16:41.763Z,2.97
2022-09-15T02:21:41.013Z,2.42
2022-09-15T02:26:38.430Z,2.47
2022-09-15T02:31:33.308Z,2.88
2022-09-15T02:36:30.398Z,2.80
2022-09-15T02:41:24.786Z,2.35
2022-09-15T02:46:22.330Z,2.15
2022-09-15T02:51:17.584Z,2.35
2022-09-15T02:56:10.679Z,2.35
2022-09-15T03:01:05.097Z,2.28
2022-09-15T03:06:16.586Z,11.60
2022-09-15T03:11:10.455Z,2.40
2022-09-15T03:16:08.930Z,2.40
2022-09-15T03:21:03.554Z,2.53
2022-09-15T03:25:56.820Z,2.40
2022-09-15T03:30:50.008Z,2.75
2022-09-15T03:35:43.569Z,2.80
2022-09-15T03:40:38.425Z,3.10
2022-09-15T03:45:31.574Z,2.83
2022-09-15T03:50:24.732Z,3.63
2022-09-15T03:55:17.998Z,2.45
2022-09-15T04:00:18.830Z,4.68
2022-09-15T04:05:13.444Z,3.13
2022-09-15T04:10:07.857Z,3.45
2022-09-15T04:15:01.354Z,2.80
2022-09-15T04:19:56.079Z,2.65
2022-09-15T04:24:49.369Z,2.60
2022-09-15T04:29:43.110Z,2.50
2022-09-15T04:34:41.102Z,2.40
2022-09-15T04:39:35.950Z,2.53
2022-09-15T04:44:29.238Z,2.42
2022-09-15T04:49:22.382Z,2.40
2022-09-15T04:54:15.467Z,2.58
2022-09-15T04:59:18.127Z,2.78
2022-09-15T05:04:11.231Z,2.35
2022-09-15T05:09:10.039Z,2.35
2022-09-15T05:14:03.696Z,2.67
2022-09-15T05:19:02.297Z,2.60
2022-09-15T05:23:56.437Z,2.60
2022-09-15T05:28:49.738Z,2.42
2022-09-15T05:33:42.878Z,2.58
2022-09-15T05:38:37.473Z,2.83
2022-09-15T05:43:32.619Z,2.90
2022-09-15T05:48:25.917Z,3.35
2022-09-15T05:53:20.752Z,3.55
2022-09-15T05:58:15.505Z,3.88
2022-09-15T06:03:14.309Z,4.07
2022-09-15T06:08:07.471Z,5.18
2022-09-15T06:13:00.556Z,4.57
2022-09-15T06:17:59.401Z,4.00
2022-09-15T06:22:52.607Z,3.92
2022-09-15T06:27:51.645Z,4.13
2022-09-15T06:32:48.303Z,3.33
2022-09-15T06:37:44.853Z,3.50
2022-09-15T06:42:40.399Z,3.00
2022-09-15T06:47:34.686Z,3.63
2022-09-15T06:52:27.892Z,3.08
2022-09-15T06:57:22.583Z,2.60
2022-09-15T07:02:16.088Z,2.47
2022-09-15T07:07:09.418Z,2.15
2022-09-15T07:12:03.063Z,2.20
2022-09-15T07:16:57.885Z,2.22
2022-09-15T07:21:52.889Z,2.55
2022-09-15T07:26:48.097Z,2.40
2022-09-15T07:31:41.452Z,2.25
2022-09-15T07:36:36.461Z,2.55
2022-09-15T07:41:31.917Z,2.95
2022-09-15T07:46:26.801Z,3.85
2022-09-15T07:51:20.992Z,3.13
2022-09-15T07:56:16.231Z,2.22
2022-09-15T08:01:12.178Z,2.30
2022-09-15T08:06:05.670Z,2.15
2022-09-15T08:10:58.796Z,2.60
2022-09-15T08:15:53.504Z,2.30
2022-09-15T08:20:46.681Z,2.63
2022-09-15T08:25:40.131Z,2.20
2022-09-15T08:30:33.573Z,2.25
2022-09-15T08:35:28.253Z,2.55
2022-09-15T08:40:25.916Z,2.30
2022-09-15T08:45:23.887Z,2.47
2022-09-15T08:50:27.446Z,2.63
2022-09-15T08:55:34.478Z,2.58
2022-09-15T09:00:28.500Z,2.40
2022-09-15T09:05:36.985Z,1.92
2022-09-15T09:10:40.147Z,2.13
2022-09-15T09:15:48.577Z,2.40
2022-09-15T09:25:46.825Z,2.10
2022-09-15T09:30:41.462Z,2.17
2022-09-15T09:35:43.297Z,2.05
2022-09-15T09:40:39.772Z,2.60
2022-09-15T09:45:34.322Z,2.20
2022-09-15T09:50:39.927Z,2.60
2022-09-15T09:55:33.241Z,2.30
2022-09-15T10:00:36.457Z,2.08
2022-09-15T10:05:29.706Z,2.28
2022-09-15T10:10:25.304Z,3.03
2022-09-15T10:15:24.572Z,2.50
2022-09-15T10:20:33.464Z,2.78
2022-09-15T10:25:55.216Z,2.40
2022-09-15T10:31:01.710Z,2.60
2022-09-15T10:36:02.257Z,2.53
2022-09-15T10:41:01.681Z,2.53
2022-09-15T10:46:03.029Z,3.10
2022-09-15T10:51:05.794Z,2.53
2022-09-15T10:56:09.117Z,2.33
2022-09-15T11:01:12.012Z,2.83
2022-09-15T11:06:18.578Z,2.00
2022-09-15T11:11:20.570Z,2.50
2022-09-15T11:16:31.279Z,2.10
2022-09-15T11:21:32.537Z,2.60
2022-09-15T11:26:31.335Z,2.63
2022-09-15T11:31:28.915Z,2.50
2022-09-15T11:41:23.758Z,2.33
2022-09-15T11:46:24.826Z,2.15
2022-09-15T11:51:23.468Z,2.30
2022-09-15T11:56:25.930Z,2.35
2022-09-15T12:01:23.036Z,2.33
2022-09-15T12:06:19.837Z,3.08
2022-09-15T12:11:20.983Z,2.37
2022-09-15T12:16:17.134Z,2.33
2022-09-15T12:21:18.617Z,2.05
2022-09-15T12:26:18.032Z,2.60
2022-09-15T12:31:29.984Z,2.22
2022-09-15T12:36:44.594Z,2.22
2022-09-15T12:41:37.756Z,2.78
2022-09-15T12:46:33.223Z,2.33
2022-09-15T12:51:29.310Z,1.90
2022-09-15T12:56:29.441Z,2.67
2022-09-15T13:01:48.628Z,2.33
2022-09-15T13:06:42.232Z,2.33
2022-09-15T13:11:41.140Z,2.22
2022-09-15T13:16:44.315Z,3.15
2022-09-15T13:21:41.380Z,2.65
2022-09-15T13:31:42.086Z,1.98
2022-09-15T13:42:31.470Z,2.35
2022-09-15T13:47:36.117Z,2.30
2022-09-15T13:52:49.022Z,2.47
2022-09-15T14:03:02.343Z,2.20
2022-09-15T14:12:59.123Z,2.30
2022-09-15T14:17:52.692Z,3.08
2022-09-15T14:22:53.645Z,2.92
2022-09-15T14:27:49.694Z,2.63
2022-09-15T14:32:47.667Z,2.60
2022-09-15T14:37:40.939Z,2.15
2022-09-15T14:42:41.592Z,2.25
2022-09-15T14:47:34.694Z,2.30
2022-09-15T14:52:39.705Z,3.30
2022-09-15T14:57:38.533Z,2.70
2022-09-15T15:02:42.145Z,2.92
2022-09-15T15:07:38.933Z,2.45
2022-09-15T15:12:35.118Z,2.90
2022-09-15T15:17:35.801Z,3.08
2022-09-15T15:22:29.577Z,2.13
2022-09-15T15:27:43.997Z,2.25
2022-09-15T15:32:43.790Z,3.05
2022-09-15T15:37:37.126Z,3.28
2022-09-15T15:42:31.239Z,2.95
2022-09-15T15:47:30.760Z,3.28
2022-09-15T15:52:25.560Z,2.97
2022-09-15T15:57:23.908Z,3.20
2022-09-15T16:07:17.877Z,2.90
2022-09-15T16:12:14.030Z,3.55
2022-09-15T16:17:07.183Z,3.15
2022-09-15T16:22:02.951Z,5.22
2022-09-15T16:26:59.109Z,2.78
2022-09-15T16:31:53.773Z,3.40
2022-09-15T16:36:47.328Z,5.10
2022-09-15T16:41:44.909Z,3.33
2022-09-15T16:46:44.455Z,3.72
2022-09-15T16:51:39.171Z,3.85
2022-09-15T16:56:37.288Z,6.20
2022-09-15T17:01:30.551Z,4.93
2022-09-15T17:06:23.665Z,6.25
2022-09-15T17:11:20.261Z,3.40
2022-09-15T17:16:15.844Z,5.40
2022-09-15T17:21:11.377Z,3.38
2022-09-15T17:26:07.101Z,4.18
2022-09-15T17:31:05.178Z,4.10
2022-09-15T17:36:02.162Z,4.40
2022-09-15T17:40:56.354Z,5.30
2022-09-15T17:45:58.115Z,6.68
2022-09-15T17:50:55.098Z,5.13
2022-09-15T17:55:48.684Z,6.65
2022-09-15T18:00:44.500Z,7.68
2022-09-15T18:05:39.798Z,8.32
2022-09-15T18:10:36.287Z,10.93
2022-09-15T18:15:31.163Z,7.28
2022-09-15T18:20:27.035Z,7.63
2022-09-15T18:25:23.798Z,8.68
2022-09-15T18:30:20.937Z,7.75
2022-09-15T18:35:18.369Z,6.45
2022-09-15T18:40:17.417Z,8.05
2022-09-15T18:45:13.131Z,5.47
2022-09-15T18:50:08.524Z,5.30
2022-09-15T18:55:02.158Z,7.00
2022-09-15T18:59:55.485Z,6.70
2022-09-15T19:04:48.570Z,6.05
2022-09-15T19:09:43.448Z,6.60
2022-09-15T19:14:36.565Z,5.70
2022-09-15T19:19:36.371Z,5.90
2022-09-15T19:24:33.668Z,5.13
2022-09-15T19:29:31.712Z,4.60
2022-09-15T19:34:25.605Z,6.43
2022-09-15T19:39:22.140Z,5.85
2022-09-15T19:44:16.057Z,4.90
2022-09-15T19:49:10.828Z,4.75
2022-09-15T19:54:05.847Z,3.55
2022-09-15T19:59:00.366Z,3.15
2022-09-15T20:03:54.555Z,3.70
2022-09-15T20:08:53.303Z,3.88
2022-09-15T20:13:47.180Z,3.50
2022-09-15T20:18:42.981Z,3.53
2022-09-15T20:23:38.045Z,3.95
2022-09-15T20:28:33.149Z,4.40
2022-09-15T20:33:26.589Z,3.95
2022-09-15T20:38:19.922Z,3.28
2022-09-15T20:43:14.517Z,3.80
2022-09-15T20:48:11.505Z,3.90
2022-09-15T20:53:04.658Z,3.30
2022-09-15T20:57:57.755Z,3.47
2022-09-15T21:02:52.715Z,2.97
2022-09-15T21:07:49.056Z,3.20
2022-09-15T21:12:42.171Z,3.25
2022-09-15T21:17:36.134Z,3.10
2022-09-15T21:22:29.186Z,2.78
2022-09-15T21:27:27.986Z,3.30
2022-09-15T21:32:24.438Z,2.88
2022-09-15T21:37:17.640Z,2.78
2022-09-15T21:42:13.010Z,3.00
2022-09-15T21:47:07.623Z,2.90
2022-09-15T21:52:00.797Z,2.67
2022-09-15T21:56:54.024Z,2.65
2022-09-15T22:01:47.152Z,3.15
2022-09-15T22:06:43.287Z,2.53
2022-09-15T22:11:38.984Z,2.67
2022-09-15T22:16:32.146Z,2.35
2022-09-15T22:21:27.195Z,2.95
2022-09-15T22:26:23.641Z,2.72
2022-09-15T22:31:19.420Z,2.60
2022-09-15T22:36:13.810Z,2.90
2022-09-15T22:41:09.202Z,2.42
2022-09-15T22:46:04.094Z,2.95
2022-09-15T22:50:57.446Z,2.42
2022-09-15T22:55:51.095Z,3.08
2022-09-15T23:00:44.288Z,2.60
2022-09-15T23:05:38.777Z,2.70
2022-09-15T23:10:33.397Z,2.70
2022-09-15T23:15:29.969Z,2.75
2022-09-15T23:20:23.135Z,3.00
2022-09-15T23:25:17.744Z,2.70
2022-09-15T23:30:12.485Z,2.55
2022-09-15T23:35:06.065Z,2.83
2022-09-15T23:39:59.263Z,2.70
2022-09-15T23:44:53.845Z,2.92
2022-09-15T23:49:47.015Z,2.90
2022-09-15T23:54:46.319Z,2.58
